createdAt,value
2019-05-13T00:01:53.994Z,5.22
2019-05-13T00:04:24.229Z,4.87
2019-05-13T00:06:57.509Z,4.83
2019-05-13T00:09:24.751Z,5.80
2019-05-13T00:11:54.018Z,5.58
2019-05-13T00:14:23.995Z,5.20
2019-05-13T00:16:53.799Z,5.22
2019-05-13T00:19:23.377Z,5.03
2019-05-13T00:21:54.451Z,4.97
2019-05-13T00:24:24.259Z,5.25
2019-05-13T00:26:53.903Z,5.10
2019-05-13T00:29:24.788Z,5.80
2019-05-13T00:31:54.157Z,5.35
2019-05-13T00:34:24.390Z,5.03
2019-05-13T00:37:07.416Z,5.12
2019-05-13T00:39:24.563Z,5.10
2019-05-13T00:41:53.817Z,4.78
2019-05-13T00:44:24.416Z,4.87
2019-05-13T00:46:53.758Z,5.08
2019-05-13T00:49:23.848Z,5.75
2019-05-13T00:51:53.389Z,4.80
2019-05-13T00:54:24.106Z,4.80
2019-05-13T00:56:54.774Z,4.70
2019-05-13T00:59:24.369Z,4.75
2019-05-13T01:01:53.437Z,4.80
2019-05-13T01:04:23.253Z,4.67
2019-05-13T01:06:53.782Z,4.90
2019-05-13T01:09:23.710Z,4.87
2019-05-13T01:11:53.691Z,4.95
2019-05-13T01:14:23.475Z,5.25
2019-05-13T01:16:54.221Z,4.90
2019-05-13T01:19:23.691Z,5.75
2019-05-13T01:21:54.081Z,5.10
2019-05-13T01:24:24.358Z,5.20
2019-05-13T01:26:54.211Z,5.80
2019-05-13T01:29:23.780Z,5.00
2019-05-13T01:31:53.860Z,5.90
2019-05-13T01:34:23.541Z,5.65
2019-05-13T01:36:53.546Z,6.10
2019-05-13T01:39:24.698Z,6.12
2019-05-13T01:41:54.056Z,6.55
2019-05-13T01:44:24.418Z,6.20
2019-05-13T01:46:53.868Z,6.58
2019-05-13T01:49:24.109Z,6.95
2019-05-13T01:51:54.145Z,6.67
2019-05-13T01:54:24.631Z,6.78
2019-05-13T01:56:54.176Z,6.72
2019-05-13T01:59:23.978Z,7.28
2019-05-13T02:01:54.104Z,7.37
2019-05-13T02:04:24.455Z,6.83
2019-05-13T02:06:54.371Z,6.85
2019-05-13T02:09:24.524Z,7.62
2019-05-13T02:11:53.997Z,7.72
2019-05-13T02:14:23.674Z,7.80
2019-05-13T02:16:53.572Z,8.15
2019-05-13T02:19:24.463Z,8.13
2019-05-13T02:21:54.319Z,7.08
2019-05-13T02:24:23.710Z,6.62
2019-05-13T02:26:54.297Z,6.62
2019-05-13T02:29:24.477Z,6.62
2019-05-13T02:31:56.184Z,7.80
2019-05-13T02:34:24.499Z,6.90
2019-05-13T02:36:53.536Z,7.15
2019-05-13T02:39:22.631Z,6.75
2019-05-13T02:41:52.675Z,7.17
2019-05-13T02:44:22.515Z,7.25
2019-05-13T02:46:52.539Z,6.55
2019-05-13T02:49:23.170Z,6.62
2019-05-13T02:51:54.685Z,7.03
2019-05-13T02:54:23.044Z,6.55
2019-05-13T02:56:52.853Z,7.92
2019-05-13T02:59:22.700Z,6.58
2019-05-13T03:01:53.477Z,6.15
2019-05-13T03:04:23.351Z,6.53
2019-05-13T03:06:52.730Z,6.05
2019-05-13T03:09:22.917Z,6.47
2019-05-13T03:11:53.559Z,6.10
2019-05-13T03:14:23.899Z,5.85
2019-05-13T03:16:54.923Z,6.05
2019-05-13T03:19:24.113Z,5.65
2019-05-13T03:21:55.260Z,5.47
2019-05-13T03:24:24.217Z,5.10
2019-05-13T03:26:53.779Z,4.95
2019-05-13T03:29:22.593Z,5.00
2019-05-13T03:31:55.944Z,4.55
2019-05-13T03:34:26.693Z,4.90
2019-05-13T03:36:56.917Z,5.10
2019-05-13T03:39:23.638Z,4.55
2019-05-13T03:41:54.039Z,5.03
2019-05-13T03:44:24.241Z,4.67
2019-05-13T03:46:54.697Z,4.22
2019-05-13T03:49:25.659Z,3.85
2019-05-13T03:51:55.509Z,3.95
2019-05-13T03:54:24.602Z,3.92
2019-05-13T03:56:58.768Z,3.98
2019-05-13T03:59:32.919Z,4.22
2019-05-13T04:02:02.550Z,4.00
2019-05-13T04:04:32.395Z,3.45
2019-05-13T04:07:03.369Z,3.62
2019-05-13T04:09:36.095Z,4.30
2019-05-13T04:12:03.525Z,4.20
2019-05-13T04:14:33.695Z,3.83
2019-05-13T04:17:03.738Z,4.08
2019-05-13T04:19:33.869Z,3.70
2019-05-13T04:22:03.294Z,3.90
2019-05-13T04:24:33.565Z,4.12
2019-05-13T04:27:03.131Z,3.37
2019-05-13T04:29:33.253Z,3.95
2019-05-13T04:32:02.832Z,3.27
2019-05-13T04:34:33.808Z,4.00
2019-05-13T04:37:03.623Z,4.08
2019-05-13T04:39:45.096Z,3.65
2019-05-13T04:42:04.213Z,3.02
2019-05-13T04:44:33.224Z,4.00
2019-05-13T04:47:03.735Z,3.55
2019-05-13T04:49:33.166Z,3.83
2019-05-13T04:52:03.236Z,4.00
2019-05-13T04:54:33.294Z,3.62
2019-05-13T04:57:03.494Z,3.55
2019-05-13T04:59:34.041Z,3.85
2019-05-13T05:02:22.376Z,3.98
2019-05-13T05:04:53.061Z,3.25
2019-05-13T05:07:23.311Z,4.10
2019-05-13T05:10:16.674Z,3.25
2019-05-13T05:12:42.560Z,3.40
2019-05-13T05:15:19.152Z,3.45
2019-05-13T05:17:58.899Z,2.98
2019-05-13T05:20:41.696Z,3.10
2019-05-13T05:23:29.125Z,3.33
2019-05-13T05:26:01.243Z,3.58
2019-05-13T05:28:31.984Z,3.45
2019-05-13T05:31:11.885Z,3.10
2019-05-13T05:33:48.271Z,3.27
2019-05-13T05:36:27.954Z,3.00
2019-05-13T05:38:58.177Z,3.17
2019-05-13T05:41:28.628Z,3.27
2019-05-13T05:43:57.900Z,3.35
2019-05-13T05:46:26.932Z,3.30
2019-05-13T05:49:02.102Z,3.00
2019-05-13T05:51:31.481Z,3.65
2019-05-13T05:54:02.552Z,3.50
2019-05-13T05:56:32.587Z,3.10
2019-05-13T05:59:03.181Z,3.35
2019-05-13T06:01:34.037Z,2.90
2019-05-13T06:04:03.163Z,2.87
2019-05-13T06:06:33.006Z,2.95
2019-05-13T06:09:02.512Z,2.85
2019-05-13T06:11:33.043Z,2.60
2019-05-13T06:14:02.470Z,2.90
2019-05-13T06:16:32.145Z,2.70
2019-05-13T06:19:01.552Z,2.60
2019-05-13T06:21:32.091Z,2.42
2019-05-13T06:24:02.749Z,2.20
2019-05-13T06:26:32.192Z,2.20
2019-05-13T06:29:02.815Z,2.15
2019-05-13T06:31:32.347Z,2.30
2019-05-13T06:34:02.187Z,2.15
2019-05-13T06:36:31.785Z,2.22
2019-05-13T06:39:02.267Z,2.30
2019-05-13T06:41:32.305Z,2.37
2019-05-13T06:44:02.613Z,2.60
2019-05-13T06:46:32.295Z,2.00
2019-05-13T06:49:02.929Z,1.87
2019-05-13T06:51:32.498Z,1.90
2019-05-13T06:54:02.358Z,2.08
2019-05-13T06:56:32.347Z,2.20
2019-05-13T06:59:02.010Z,1.82
2019-05-13T07:01:32.318Z,1.60
2019-05-13T07:04:02.649Z,2.00
2019-05-13T07:06:32.273Z,1.98
2019-05-13T07:09:01.668Z,1.98
2019-05-13T07:11:31.461Z,2.20
2019-05-13T07:14:02.354Z,1.50
2019-05-13T07:16:31.808Z,1.87
2019-05-13T07:19:02.614Z,1.72
2019-05-13T07:21:32.410Z,1.90
2019-05-13T07:24:02.193Z,1.70
2019-05-13T07:26:31.659Z,1.87
2019-05-13T07:29:03.349Z,1.87
2019-05-13T07:31:32.347Z,1.60
2019-05-13T07:34:02.389Z,2.20
2019-05-13T07:36:32.141Z,1.75
2019-05-13T07:39:02.086Z,1.60
2019-05-13T07:41:38.210Z,1.75
2019-05-13T07:44:02.496Z,2.15
2019-05-13T07:46:32.240Z,3.58
2019-05-13T07:49:02.138Z,2.58
2019-05-13T07:51:32.156Z,1.87
2019-05-13T07:54:02.396Z,1.95
2019-05-13T07:56:32.397Z,2.15
2019-05-13T07:59:02.086Z,2.05
2019-05-13T08:01:32.692Z,1.62
2019-05-13T08:04:02.221Z,1.95
2019-05-13T08:06:32.302Z,1.62
2019-05-13T08:09:01.993Z,1.92
2019-05-13T08:11:35.370Z,1.75
2019-05-13T08:14:01.917Z,2.00
2019-05-13T08:16:32.370Z,2.10
2019-05-13T08:19:01.981Z,1.70
2019-05-13T08:21:32.207Z,1.72
2019-05-13T08:24:02.840Z,1.85
2019-05-13T08:26:38.197Z,2.40
2019-05-13T08:29:07.949Z,1.92
2019-05-13T08:31:37.087Z,2.20
2019-05-13T08:34:06.051Z,2.15
2019-05-13T08:36:35.124Z,1.60
2019-05-13T08:39:05.733Z,1.75
2019-05-13T08:41:35.103Z,2.20
2019-05-13T08:44:04.104Z,2.05
2019-05-13T08:46:34.057Z,3.08
2019-05-13T08:49:03.995Z,2.22
2019-05-13T08:51:34.855Z,1.82
2019-05-13T08:54:03.746Z,2.08
2019-05-13T08:56:33.726Z,1.98
2019-05-13T08:59:02.576Z,1.82
2019-05-13T09:01:31.995Z,1.90
2019-05-13T09:04:02.677Z,2.20
2019-05-13T09:06:32.123Z,2.00
2019-05-13T09:09:02.574Z,2.17
2019-05-13T09:11:32.376Z,2.35
2019-05-13T09:14:02.351Z,1.90
2019-05-13T09:16:32.065Z,2.85
2019-05-13T09:19:03.680Z,2.52
2019-05-13T09:21:32.029Z,2.60
2019-05-13T09:24:02.143Z,2.37
2019-05-13T09:26:31.797Z,2.30
2019-05-13T09:29:01.448Z,2.58
2019-05-13T09:31:32.466Z,2.50
2019-05-13T09:34:02.127Z,2.83
2019-05-13T09:36:32.391Z,2.55
2019-05-13T09:39:02.211Z,2.33
2019-05-13T09:41:34.572Z,2.45
2019-05-13T09:44:02.544Z,2.37
2019-05-13T09:46:31.964Z,2.47
2019-05-13T09:49:18.345Z,3.22
2019-05-13T09:51:34.710Z,2.75
2019-05-13T09:54:04.507Z,2.90
2019-05-13T09:56:33.537Z,2.65
2019-05-13T09:59:02.498Z,2.40
2019-05-13T10:01:32.181Z,2.00
2019-05-13T10:04:03.020Z,1.90
2019-05-13T10:06:33.735Z,2.12
2019-05-13T10:09:02.965Z,2.05
2019-05-13T10:11:32.088Z,1.70
2019-05-13T10:14:02.073Z,2.02
2019-05-13T10:16:31.859Z,1.55
2019-05-13T10:19:02.340Z,2.10
2019-05-13T10:21:32.831Z,1.65
2019-05-13T10:24:02.417Z,1.50
2019-05-13T10:26:32.222Z,1.55
2019-05-13T10:29:01.266Z,2.00
2019-05-13T10:31:31.383Z,1.42
2019-05-13T10:34:02.264Z,1.80
2019-05-13T10:36:31.693Z,2.00
2019-05-13T10:39:01.389Z,1.70
2019-05-13T10:41:33.261Z,1.72
2019-05-13T10:44:03.231Z,1.80
2019-05-13T10:46:33.426Z,1.70
2019-05-13T10:49:03.824Z,1.40
2019-05-13T10:51:32.798Z,1.50
2019-05-13T10:54:02.528Z,1.67
2019-05-13T10:56:32.790Z,1.82
2019-05-13T10:59:03.140Z,1.67
2019-05-13T11:01:32.896Z,1.57
2019-05-13T11:04:02.608Z,1.45
2019-05-13T11:06:32.598Z,1.50
2019-05-13T11:09:02.180Z,1.65
2019-05-13T11:11:33.004Z,2.00
2019-05-13T11:14:10.701Z,1.42
2019-05-13T11:16:33.574Z,1.92
2019-05-13T11:19:04.901Z,1.90
2019-05-13T11:21:33.774Z,2.27
2019-05-13T11:24:03.573Z,1.98
2019-05-13T11:26:36.099Z,2.50
2019-05-13T11:29:03.663Z,2.58
2019-05-13T11:31:32.970Z,2.15
2019-05-13T11:34:02.310Z,1.70
2019-05-13T11:36:33.364Z,1.62
2019-05-13T11:39:02.996Z,1.92
2019-05-13T11:41:37.969Z,1.70
2019-05-13T11:44:14.076Z,1.65
2019-05-13T11:46:37.538Z,1.60
2019-05-13T11:49:06.793Z,1.80
2019-05-13T11:51:42.588Z,1.50
2019-05-13T11:54:13.924Z,1.62
2019-05-13T11:59:14.101Z,1.50
2019-05-13T12:01:44.299Z,1.40
2019-05-13T12:04:13.481Z,1.50
2019-05-13T12:06:49.443Z,1.50
2019-05-13T12:09:21.987Z,2.05
2019-05-13T12:11:49.550Z,1.40
2019-05-13T12:14:39.324Z,1.87
2019-05-13T12:16:49.394Z,1.50
2019-05-13T12:19:18.579Z,1.60
2019-05-13T12:21:47.633Z,1.30
2019-05-13T12:24:22.638Z,1.17
2019-05-13T12:26:53.272Z,1.50
2019-05-13T12:29:22.692Z,1.40
2019-05-13T12:31:52.607Z,1.47
2019-05-13T12:34:22.767Z,1.42
2019-05-13T12:36:52.030Z,1.40
2019-05-13T12:39:23.888Z,1.37
2019-05-13T12:41:53.724Z,1.30
2019-05-13T12:44:22.978Z,1.35
2019-05-13T12:46:54.344Z,1.35
2019-05-13T12:49:23.012Z,1.37
2019-05-13T12:51:59.382Z,1.70
2019-05-13T12:54:23.681Z,1.50
2019-05-13T12:56:53.267Z,2.00
2019-05-13T12:59:22.375Z,1.42
2019-05-13T13:01:52.737Z,1.52
2019-05-13T13:04:24.022Z,1.40
2019-05-13T13:06:53.322Z,1.87
2019-05-13T13:09:22.740Z,1.50
2019-05-13T13:11:54.326Z,1.30
2019-05-13T13:14:24.119Z,1.45
2019-05-13T13:16:54.205Z,1.60
2019-05-13T13:19:23.506Z,1.70
2019-05-13T13:21:53.544Z,1.52
2019-05-13T13:24:23.724Z,1.55
2019-05-13T13:26:53.799Z,1.42
2019-05-13T13:29:23.419Z,1.40
2019-05-13T13:31:55.751Z,1.67
2019-05-13T13:34:33.789Z,1.27
2019-05-13T13:37:04.974Z,1.70
2019-05-13T13:39:34.586Z,1.60
2019-05-13T13:42:05.431Z,1.50
2019-05-13T13:44:35.178Z,1.50
2019-05-13T13:47:04.462Z,1.50
2019-05-13T13:49:34.845Z,1.45
2019-05-13T13:52:04.438Z,1.42
2019-05-13T13:54:33.756Z,1.82
2019-05-13T13:57:04.112Z,1.90
2019-05-13T13:59:35.976Z,1.50
2019-05-13T14:02:05.605Z,1.60
2019-05-13T14:04:35.658Z,1.77
2019-05-13T14:06:30.769Z,1.55
2019-05-13T14:09:36.550Z,1.52
2019-05-13T14:12:05.621Z,2.22
2019-05-13T14:14:34.622Z,3.20
2019-05-13T14:17:03.812Z,1.60
2019-05-13T14:19:32.914Z,1.70
2019-05-13T14:22:01.989Z,1.50
2019-05-13T14:24:33.048Z,1.67
2019-05-13T14:27:02.905Z,1.85
2019-05-13T14:29:40.976Z,1.57
2019-05-13T14:32:03.254Z,1.80
2019-05-13T14:34:42.027Z,2.02
2019-05-13T14:37:11.657Z,1.50
2019-05-13T14:39:41.105Z,3.33
2019-05-13T14:42:11.709Z,2.02
2019-05-13T14:44:40.780Z,1.50
2019-05-13T14:47:12.137Z,1.60
2019-05-13T14:49:42.251Z,1.40
2019-05-13T14:52:11.964Z,1.40
2019-05-13T14:54:42.111Z,1.50
2019-05-13T14:57:14.801Z,1.42
2019-05-13T14:59:42.698Z,1.40
2019-05-13T15:02:12.163Z,1.35
2019-05-13T15:04:41.897Z,1.42
2019-05-13T15:07:16.059Z,4.20
2019-05-13T15:09:45.896Z,2.98
2019-05-13T15:12:15.634Z,1.90
2019-05-13T15:14:48.991Z,1.52
2019-05-13T15:17:18.296Z,1.22
2019-05-13T15:19:47.947Z,1.40
2019-05-13T15:22:16.906Z,1.60
2019-05-13T15:24:51.720Z,1.80
2019-05-13T15:27:22.361Z,2.17
2019-05-13T15:29:51.916Z,3.27
2019-05-13T15:32:21.787Z,1.40
2019-05-13T15:34:52.469Z,1.40
2019-05-13T15:37:21.543Z,1.30
2019-05-13T15:39:51.973Z,1.60
2019-05-13T15:42:21.451Z,2.90
2019-05-13T15:44:52.556Z,1.50
2019-05-13T15:47:25.090Z,1.77
2019-05-13T15:49:51.609Z,1.50
2019-05-13T15:52:22.605Z,1.45
2019-05-13T15:54:52.246Z,1.30
2019-05-13T15:57:23.978Z,1.55
2019-05-13T15:59:53.137Z,1.40
2019-05-13T16:02:22.859Z,1.70
2019-05-13T16:05:00.234Z,1.40
2019-05-13T16:07:22.662Z,1.52
2019-05-13T16:09:52.585Z,1.20
2019-05-13T16:12:23.265Z,1.80
2019-05-13T16:14:52.942Z,1.45
2019-05-13T16:17:36.560Z,1.92
2019-05-13T16:19:53.643Z,1.50
2019-05-13T16:22:23.125Z,1.75
2019-05-13T16:24:52.542Z,1.90
2019-05-13T16:27:22.179Z,1.40
2019-05-13T16:29:55.151Z,1.65
2019-05-13T16:32:24.447Z,1.92
2019-05-13T16:34:53.496Z,1.45
2019-05-13T16:37:22.992Z,1.72
2019-05-13T16:39:52.501Z,1.90
2019-05-13T16:42:22.552Z,1.57
2019-05-13T16:44:51.870Z,1.55
2019-05-13T16:47:21.341Z,1.72
2019-05-13T16:49:50.619Z,1.20
2019-05-13T16:52:22.081Z,1.80
2019-05-13T16:54:53.278Z,1.60
2019-05-13T16:57:21.632Z,1.60
2019-05-13T16:59:51.691Z,1.52
2019-05-13T17:02:20.914Z,1.77
2019-05-13T17:04:51.975Z,1.37
2019-05-13T17:07:22.889Z,1.55
2019-05-13T17:09:52.175Z,1.72
2019-05-13T17:12:24.166Z,2.10
2019-05-13T17:14:53.254Z,2.05
2019-05-13T17:17:23.613Z,3.27
2019-05-13T17:19:54.009Z,2.00
2019-05-13T17:22:23.464Z,2.10
2019-05-13T17:24:52.603Z,2.22
2019-05-13T17:27:22.036Z,2.02
2019-05-13T17:29:51.602Z,2.12
2019-05-13T17:32:22.200Z,1.90
2019-05-13T17:34:52.135Z,2.37
2019-05-13T17:37:27.717Z,2.50
2019-05-13T17:40:01.430Z,2.50
2019-05-13T17:42:31.957Z,3.33
2019-05-13T17:45:02.607Z,2.60
2019-05-13T17:47:31.783Z,2.72
2019-05-13T17:50:01.283Z,2.40
2019-05-13T17:52:29.974Z,5.80
2019-05-13T17:55:00.964Z,2.87
2019-05-13T17:57:32.040Z,2.45
2019-05-13T18:00:00.751Z,2.42
2019-05-13T18:02:31.421Z,2.37
2019-05-13T18:05:01.987Z,4.62
2019-05-13T18:07:32.126Z,2.72
2019-05-13T18:10:01.563Z,2.60
2019-05-13T18:12:30.735Z,2.50
2019-05-13T18:15:02.261Z,2.40
2019-05-13T18:17:31.176Z,2.85
2019-05-13T18:20:02.390Z,2.20
2019-05-13T18:22:31.827Z,2.10
2019-05-13T18:25:02.593Z,1.80
2019-05-13T18:27:32.355Z,2.02
2019-05-13T18:30:02.105Z,2.08
2019-05-13T18:32:31.964Z,1.98
2019-05-13T18:35:01.841Z,2.10
2019-05-13T18:37:31.666Z,2.22
2019-05-13T18:40:02.526Z,3.70
2019-05-13T18:42:31.729Z,2.65
2019-05-13T18:45:02.134Z,2.47
2019-05-13T18:47:32.026Z,2.20
2019-05-13T18:50:02.332Z,2.30
2019-05-13T18:52:31.456Z,2.45
2019-05-13T18:55:02.261Z,2.33
2019-05-13T18:57:31.870Z,2.52
2019-05-13T19:00:03.545Z,2.40
2019-05-13T19:02:34.198Z,3.12
2019-05-13T19:05:04.232Z,4.28
2019-05-13T19:07:33.170Z,3.95
2019-05-13T19:10:02.638Z,2.90
2019-05-13T19:12:31.946Z,3.10
2019-05-13T19:15:02.409Z,2.87
2019-05-13T19:17:32.218Z,3.30
2019-05-13T19:20:01.734Z,3.22
2019-05-13T19:22:31.796Z,3.08
2019-05-13T19:25:01.275Z,3.87
2019-05-13T19:27:32.213Z,3.47
2019-05-13T19:30:01.335Z,3.90
2019-05-13T19:32:32.383Z,3.83
2019-05-13T19:35:02.548Z,3.77
2019-05-13T19:37:42.390Z,4.37
2019-05-13T19:40:15.224Z,3.40
2019-05-13T19:42:51.005Z,3.80
2019-05-13T19:45:21.617Z,3.50
2019-05-13T19:47:51.695Z,3.45
2019-05-13T19:50:22.143Z,3.83
2019-05-13T19:52:51.844Z,3.60
2019-05-13T19:55:21.332Z,3.65
2019-05-13T19:57:51.667Z,3.80
2019-05-13T20:00:21.273Z,3.70
2019-05-13T20:02:49.961Z,3.65
2019-05-13T20:05:20.529Z,4.03
2019-05-13T20:07:52.171Z,4.45
2019-05-13T20:10:20.245Z,3.92
2019-05-13T20:12:51.240Z,4.37
2019-05-13T20:15:21.959Z,4.70
2019-05-13T20:17:51.974Z,4.33
2019-05-13T20:20:21.281Z,4.65
2019-05-13T20:22:51.775Z,5.12
2019-05-13T20:25:21.749Z,4.62
2019-05-13T20:27:51.503Z,4.60
2019-05-13T20:30:23.182Z,4.53
2019-05-13T20:32:52.292Z,4.60
2019-05-13T20:35:21.922Z,4.55
2019-05-13T20:37:51.588Z,5.33
2019-05-13T20:40:22.087Z,5.62
2019-05-13T20:42:51.716Z,5.83
2019-05-13T20:45:22.424Z,6.12
2019-05-13T20:47:51.564Z,7.70
2019-05-13T20:50:21.687Z,8.68
2019-05-13T20:52:51.728Z,7.78
2019-05-13T20:55:22.028Z,8.23
2019-05-13T20:57:53.063Z,8.13
2019-05-13T21:00:22.193Z,8.15
2019-05-13T21:02:51.648Z,8.05
2019-05-13T21:05:21.759Z,8.38
2019-05-13T21:07:51.665Z,8.30
2019-05-13T21:10:21.350Z,8.98
2019-05-13T21:12:51.627Z,8.93
2019-05-13T21:15:21.103Z,9.43
2019-05-13T21:17:51.454Z,9.13
2019-05-13T21:20:25.615Z,9.80
2019-05-13T21:22:51.741Z,9.40
2019-05-13T21:25:21.523Z,9.53
2019-05-13T21:27:51.423Z,10.00
2019-05-13T21:30:22.283Z,9.55
2019-05-13T21:32:51.792Z,8.90
2019-05-13T21:35:21.256Z,8.10
2019-05-13T21:37:51.183Z,8.85
2019-05-13T21:40:21.674Z,7.75
2019-05-13T21:42:52.461Z,8.75
2019-05-13T21:45:21.116Z,8.98
2019-05-13T21:47:50.070Z,8.30
2019-05-13T21:50:32.682Z,7.92
2019-05-13T21:52:51.456Z,7.40
2019-05-13T21:55:21.709Z,8.88
2019-05-13T21:57:52.884Z,7.58
2019-05-13T22:00:23.926Z,7.12
2019-05-13T22:02:52.936Z,7.15
2019-05-13T22:05:22.203Z,6.95
2019-05-13T22:07:51.580Z,7.70
2019-05-13T22:10:21.631Z,8.33
2019-05-13T22:12:52.039Z,7.60
2019-05-13T22:15:21.865Z,7.25
2019-05-13T22:17:51.303Z,7.42
2019-05-13T22:20:21.360Z,7.67
2019-05-13T22:22:52.035Z,7.67
2019-05-13T22:25:21.386Z,7.05
2019-05-13T22:27:51.838Z,6.10
2019-05-13T22:30:22.825Z,6.47
2019-05-13T22:32:52.267Z,6.75
2019-05-13T22:35:21.854Z,5.47
2019-05-13T22:37:56.291Z,6.25
2019-05-13T22:40:26.755Z,6.58
2019-05-13T22:42:57.107Z,6.22
2019-05-13T22:45:26.138Z,5.53
2019-05-13T22:47:55.158Z,6.35
2019-05-13T22:50:24.440Z,5.83
2019-05-13T22:52:53.568Z,5.92
2019-05-13T22:55:22.522Z,5.28
2019-05-13T22:57:52.555Z,5.53
2019-05-13T23:00:22.318Z,5.25
2019-05-13T23:02:52.527Z,5.85
2019-05-13T23:05:21.916Z,5.40
2019-05-13T23:07:51.479Z,4.58
2019-05-13T23:10:22.500Z,5.05
2019-05-13T23:12:51.953Z,5.45
2019-05-13T23:15:21.277Z,4.75
2019-05-13T23:17:52.094Z,5.00
2019-05-13T23:20:21.564Z,4.25
2019-05-13T23:22:51.898Z,5.50
2019-05-13T23:25:21.572Z,4.87
2019-05-13T23:27:51.372Z,4.30
2019-05-13T23:30:22.201Z,5.05
2019-05-13T23:32:51.727Z,5.05
2019-05-13T23:35:21.712Z,4.58
2019-05-13T23:37:51.045Z,5.55
2019-05-13T23:40:20.595Z,5.20
2019-05-13T23:42:51.626Z,4.80
2019-05-13T23:45:21.799Z,5.10
2019-05-13T23:47:51.177Z,5.15
2019-05-13T23:50:21.587Z,5.22
2019-05-13T23:52:51.290Z,5.28
2019-05-13T23:55:22.476Z,5.08
2019-05-13T23:57:52.508Z,4.97
